Time;durP1;ratioP1;P1;durP2;ratioP2;P2;SDS_P1;SDS_P2;PMS_P1;PMS_P2;Temp;Humidity;BMP_temperature;BMP_pressure;BME280_temperature;BME280_humidity;BME280_pressure;Samples;Min_cycle;Max_cycle;Signal;HPM_P1;HPM_P2
2024/01/14 00:01:14;;;;;;;;;;;;;;;0.76;100.00;101430.72;4950021;28;19926;-73
2024/01/14 00:03:41;;;;;;;;;;;;;;;0.76;100.00;101436.84;4949697;28;19928;-73
2024/01/14 00:06:06;;;;;;;;;;;;;;;0.79;100.00;101435.94;4951142;28;20012;-74
2024/01/14 00:08:31;;;;;;;;;;;;;;;0.75;100.00;101421.91;4952878;28;19922;-76
2024/01/14 00:10:57;;;;;;;;;;;;;;;0.80;100.00;101424.41;4938857;28;19953;-75
2024/01/14 00:13:22;;;;;;;;;;;;;;;0.72;100.00;101422.88;4966275;28;19922;-75
2024/01/14 00:15:47;;;;;;;;;;;;;;;0.76;100.00;101415.72;4952899;28;19928;-75
2024/01/14 00:18:12;;;;;;;;;;;;;;;0.80;100.00;101420.00;4935650;28;19933;-76
2024/01/14 00:20:37;;;;;;;;;;;;;;;0.78;100.00;101419.19;4952385;28;19924;-73
2024/01/14 00:23:03;;;;;;;;;;;;;;;0.81;100.00;101412.94;4950145;28;20230;-74
2024/01/14 00:25:29;;;;;;;;;;;;;;;0.81;100.00;101402.34;4966602;28;20584;-76
2024/01/14 00:27:55;;;;;;;;;;;;;;;0.80;100.00;101403.25;4949498;28;20385;-77
2024/01/14 00:30:20;;;;;;;;;;;;;;;0.81;100.00;101403.22;4961677;28;19998;-74
2024/01/14 00:32:45;;;;;;;;;;;;;;;0.79;100.00;101407.69;4961420;28;19933;-75
2024/01/14 00:35:10;;;;;;;;;;;;;;;0.85;100.00;101402.25;4947248;28;19984;-75
2024/01/14 00:37:35;;;;;;;;;;;;;;;0.85;100.00;101401.34;4922800;28;19919;-75
2024/01/14 00:40:01;;;;;;;;;;;;;;;0.84;100.00;101402.28;4955772;28;19926;-73
2024/01/14 00:42:26;;;;;;;;;;;;;;;0.78;100.00;101392.75;4953442;28;19926;-74
2024/01/14 00:44:51;;;;;;;;;;;;;;;0.83;100.00;101400.53;4967769;28;19965;-74
2024/01/14 00:47:16;;;;;;;;;;;;;;;0.83;100.00;101390.84;4959013;28;20029;-74
2024/01/14 00:49:41;;;;;;;;;;;;;;;0.85;100.00;101393.44;4953083;28;19956;-74
2024/01/14 00:52:07;;;;;;;;;;;;;;;0.87;100.00;101388.97;4961040;28;19929;-74
2024/01/14 00:54:32;;;;;;;;;;;;;;;0.87;100.00;101400.44;4967008;28;19934;-74
2024/01/14 00:56:57;;;;;;;;;;;;;;;0.83;100.00;101395.25;4951948;28;19926;-74
2024/01/14 00:59:22;;;;;;;;;;;;;;;0.79;100.00;101396.28;4950962;28;20395;-77
2024/01/14 01:01:48;;;;;;;;;;;;;;;0.79;100.00;101383.91;4954547;28;19956;-74
2024/01/14 01:04:13;;;;;;;;;;;;;;;0.80;100.00;101383.00;4965881;28;20041;-76
2024/01/14 01:06:38;;;;;;;;;;;;;;;0.78;100.00;101368.09;4963597;28;20183;-74
2024/01/14 01:09:03;;;;;;;;;;;;;;;0.80;100.00;101374.19;4937152;28;19926;-74
2024/01/14 01:11:28;;;;;;;;;;;;;;;0.72;100.00;101371.75;4948002;28;19914;-73
2024/01/14 01:13:54;;;;;;;;;;;;;;;0.68;100.00;101368.34;4968465;28;20192;-74
2024/01/14 01:16:20;;;;;;;;;;;;;;;0.66;100.00;101359.59;4959519;28;19991;-74
2024/01/14 01:18:45;;;;;;;;;;;;;;;0.68;100.00;101349.84;4958438;28;19929;-75
2024/01/14 01:21:20;;;;;;;;;;;;;;;0.72;100.00;101345.31;4948972;28;19953;-75
2024/01/14 01:23:45;;;;;;;;;;;;;;;0.72;100.00;101334.75;4953226;28;19922;-74
2024/01/14 01:26:10;;;;;;;;;;;;;;;0.72;100.00;101353.25;4964827;28;20000;-75
2024/01/14 01:28:35;;;;;;;;;;;;;;;0.68;100.00;101339.28;4957179;28;21255;-75
2024/01/14 01:31:00;;;;;;;;;;;;;;;0.71;100.00;101339.19;4948286;28;19958;-74
2024/01/14 01:33:26;;;;;;;;;;;;;;;0.80;100.00;101339.81;4940844;28;20017;-75
2024/01/14 01:35:51;;;;;;;;;;;;;;;0.72;100.00;101337.41;4954629;28;19968;-74
2024/01/14 01:38:16;;;;;;;;;;;;;;;0.83;100.00;101337.97;4951757;28;19922;-74
2024/01/14 01:40:41;;;;;;;;;;;;;;;0.80;100.00;101340.69;4951795;28;19922;-74
2024/01/14 01:43:07;;;;;;;;;;;;;;;0.80;100.00;101337.16;4943381;28;19930;-75
2024/01/14 01:45:32;;;;;;;;;;;;;;;0.80;100.00;101337.16;4956291;28;19918;-74
2024/01/14 01:47:57;;;;;;;;;;;;;;;0.81;100.00;101337.16;4949806;28;19962;-75
2024/01/14 01:50:22;;;;;;;;;;;;;;;0.81;100.00;101329.22;4956757;28;21828;-75
2024/01/14 01:52:47;;;;;;;;;;;;;;;0.84;100.00;101329.13;4961646;28;19966;-75
2024/01/14 01:55:13;;;;;;;;;;;;;;;0.90;100.00;101336.00;4964682;28;20271;-74
2024/01/14 01:57:38;;;;;;;;;;;;;;;0.88;100.00;101332.53;4927921;28;19968;-75
2024/01/14 02:00:03;;;;;;;;;;;;;;;0.91;100.00;101327.16;4943235;28;19927;-75
2024/01/14 02:02:28;;;;;;;;;;;;;;;0.82;100.00;101327.41;4940874;28;19972;-76
2024/01/14 02:04:54;;;;;;;;;;;;;;;0.89;100.00;101321.94;4955764;28;20887;-76
2024/01/14 02:07:20;;;;;;;;;;;;;;;0.94;100.00;101327.06;4952443;28;20443;-75
2024/01/14 02:09:45;;;;;;;;;;;;;;;0.87;100.00;101317.59;4950407;28;19926;-74
2024/01/14 02:12:10;;;;;;;;;;;;;;;0.87;100.00;101322.88;4939521;28;19922;-75
2024/01/14 02:14:35;;;;;;;;;;;;;;;0.89;100.00;101319.28;4951734;28;20004;-75
2024/01/14 02:17:01;;;;;;;;;;;;;;;0.94;100.00;101315.63;4954254;28;20052;-74
2024/01/14 02:19:26;;;;;;;;;;;;;;;0.89;100.00;101319.28;4949049;28;19926;-74
2024/01/14 02:21:56;;;;;;;;;;;;;;;0.87;100.00;101318.47;4953696;28;19922;-74
2024/01/14 02:24:28;;;;;;;;;;;;;;;0.92;100.00;101322.75;4959070;28;19924;-74
2024/01/14 02:26:53;;;;;;;;;;;;;;;0.91;100.00;101319.22;4951119;28;20280;-74
2024/01/14 02:29:19;;;;;;;;;;;;;;;0.95;100.00;101323.53;4957588;28;19933;-74
2024/01/14 02:31:44;;;;;;;;;;;;;;;0.89;100.00;101321.06;4951310;28;19925;-74
2024/01/14 02:34:10;;;;;;;;;;;;;;;0.97;100.00;101320.81;4957115;28;19945;-74
2024/01/14 02:36:35;;;;;;;;;;;;;;;1.00;100.00;101316.31;4952042;28;20423;-74
2024/01/14 02:39:00;;;;;;;;;;;;;;;1.00;100.00;101308.38;4956405;28;19930;-74
2024/01/14 02:41:25;;;;;;;;;;;;;;;0.94;100.00;101316.50;4955529;28;19918;-74
2024/01/14 02:43:50;;;;;;;;;;;;;;;0.96;100.00;101314.69;4952319;28;20060;-74
2024/01/14 02:46:16;;;;;;;;;;;;;;;0.95;100.00;101312.06;4955649;28;19929;-74
2024/01/14 02:48:41;;;;;;;;;;;;;;;0.95;100.00;101314.69;4952340;28;19973;-74
2024/01/14 02:51:06;;;;;;;;;;;;;;;0.97;100.00;101299.66;4937707;28;20411;-74
2024/01/14 02:53:31;;;;;;;;;;;;;;;1.02;100.00;101296.00;4953776;28;20324;-74
2024/01/14 02:55:56;;;;;;;;;;;;;;;1.03;100.00;101297.72;4953135;28;20321;-74
2024/01/14 02:58:22;;;;;;;;;;;;;;;0.98;100.00;101304.91;4949187;28;20735;-74
2024/01/14 03:00:47;;;;;;;;;;;;;;;1.02;100.00;101296.00;4965143;28;20392;-74
2024/01/14 03:03:13;;;;;;;;;;;;;;;1.00;100.00;101289.88;4953237;28;20383;-74
2024/01/14 03:05:38;;;;;;;;;;;;;;;1.00;100.00;101291.63;4951645;28;20283;-74
2024/01/14 03:08:03;;;;;;;;;;;;;;;0.95;100.00;101291.78;4939755;28;20108;-74
2024/01/14 03:10:29;;;;;;;;;;;;;;;1.01;100.00;101286.31;4956497;28;20185;-75
2024/01/14 03:12:54;;;;;;;;;;;;;;;0.95;100.00;101280.31;4949221;28;19945;-75
2024/01/14 03:15:19;;;;;;;;;;;;;;;0.98;100.00;101273.19;4939511;28;19930;-74
2024/01/14 03:17:44;;;;;;;;;;;;;;;1.02;100.00;101279.25;4939173;28;19969;-75
2024/01/14 03:20:10;;;;;;;;;;;;;;;0.96;100.00;101276.78;4945181;28;20060;-75
2024/01/14 03:22:35;;;;;;;;;;;;;;;0.91;100.00;101276.06;4940630;28;19929;-74
2024/01/14 03:25:00;;;;;;;;;;;;;;;0.98;100.00;101274.94;4963909;28;20353;-74
2024/01/14 03:27:25;;;;;;;;;;;;;;;0.88;100.00;101269.09;4937871;28;20515;-75
2024/01/14 03:29:50;;;;;;;;;;;;;;;0.87;100.00;101272.63;4949156;28;19965;-76
2024/01/14 03:32:16;;;;;;;;;;;;;;;0.85;100.00;101267.41;4960278;28;20008;-75
2024/01/14 03:34:41;;;;;;;;;;;;;;;0.80;100.00;101266.69;4955908;28;20116;-74
2024/01/14 03:37:06;;;;;;;;;;;;;;;0.76;100.00;101265.03;4954540;28;19930;-76
2024/01/14 03:39:31;;;;;;;;;;;;;;;0.80;100.00;101260.50;4953652;28;19918;-74
2024/01/14 03:41:56;;;;;;;;;;;;;;;0.78;100.00;101257.06;4954026;28;20448;-75
2024/01/14 03:44:22;;;;;;;;;;;;;;;0.77;100.00;101252.69;4958117;28;20393;-75
2024/01/14 03:46:47;;;;;;;;;;;;;;;0.77;100.00;101250.06;4949428;28;19925;-74
2024/01/14 03:49:12;;;;;;;;;;;;;;;0.80;100.00;101253.47;4962837;28;19934;-74
2024/01/14 03:51:37;;;;;;;;;;;;;;;0.72;100.00;101247.53;4951249;28;19922;-74
2024/01/14 03:54:03;;;;;;;;;;;;;;;0.78;100.00;101243.84;4946853;28;20107;-75
2024/01/14 03:56:28;;;;;;;;;;;;;;;0.75;100.00;101242.16;4956494;28;19966;-74
2024/01/14 03:58:53;;;;;;;;;;;;;;;0.75;100.00;101242.16;4956983;28;19985;-74
2024/01/14 04:01:18;;;;;;;;;;;;;;;0.81;100.00;101243.72;4953113;28;19923;-75
2024/01/14 04:03:44;;;;;;;;;;;;;;;0.80;100.00;101242.88;4952020;28;20451;-75
2024/01/14 04:06:09;;;;;;;;;;;;;;;0.83;100.00;101240.16;4943223;28;19974;-74
2024/01/14 04:08:34;;;;;;;;;;;;;;;0.84;100.00;101241.88;4950892;28;20446;-74
2024/01/14 04:10:59;;;;;;;;;;;;;;;0.87;100.00;101244.44;4949631;28;20350;-74
2024/01/14 04:13:24;;;;;;;;;;;;;;;0.88;100.00;101242.66;4949058;28;20579;-74
2024/01/14 04:15:50;;;;;;;;;;;;;;;0.82;100.00;101238.41;4955632;28;20365;-74
2024/01/14 04:18:15;;;;;;;;;;;;;;;0.85;100.00;101240.09;4954203;28;20416;-76
2024/01/14 04:20:40;;;;;;;;;;;;;;;0.84;100.00;101241.00;4949320;28;19959;-75
2024/01/14 04:23:05;;;;;;;;;;;;;;;0.83;100.00;101233.97;4951030;28;19970;-75
2024/01/14 04:25:30;;;;;;;;;;;;;;;0.77;100.00;101229.75;4953272;28;19973;-75
2024/01/14 04:27:56;;;;;;;;;;;;;;;0.76;100.00;101225.38;4962238;28;20036;-75
2024/01/14 04:30:21;;;;;;;;;;;;;;;0.73;100.00;101226.34;4951115;28;19973;-75
2024/01/14 04:32:46;;;;;;;;;;;;;;;0.69;100.00;101222.06;4953764;28;19949;-74
2024/01/14 04:35:11;;;;;;;;;;;;;;;0.70;100.00;101223.81;4951613;28;19964;-75
2024/01/14 04:37:37;;;;;;;;;;;;;;;0.62;100.00;101217.03;4951154;28;20029;-75
2024/01/14 04:40:02;;;;;;;;;;;;;;;0.62;100.00;101220.50;4951446;28;19922;-75
2024/01/14 04:42:28;;;;;;;;;;;;;;;0.58;100.00;101224.16;4947484;28;19926;-74
2024/01/14 04:44:53;;;;;;;;;;;;;;;0.61;100.00;101217.94;4946579;28;19933;-74
2024/01/14 04:47:18;;;;;;;;;;;;;;;0.56;100.00;101211.00;4949407;28;20283;-75
2024/01/14 04:49:43;;;;;;;;;;;;;;;0.57;100.00;101207.44;4944419;28;19994;-75
2024/01/14 04:52:08;;;;;;;;;;;;;;;0.55;100.00;101204.00;4951749;28;20399;-75
2024/01/14 04:54:34;;;;;;;;;;;;;;;0.55;100.00;101209.28;4945663;28;20387;-74
2024/01/14 04:56:59;;;;;;;;;;;;;;;0.49;100.00;101200.66;4938133;28;20373;-75
2024/01/14 04:59:24;;;;;;;;;;;;;;;0.58;100.00;101206.53;4954933;28;20461;-74
2024/01/14 05:01:49;;;;;;;;;;;;;;;0.49;100.00;101204.16;4940046;28;20336;-74
2024/01/14 05:04:15;;;;;;;;;;;;;;;0.49;100.00;101208.59;4958650;28;20424;-75
2024/01/14 05:06:40;;;;;;;;;;;;;;;0.53;100.00;101202.31;4947330;28;20361;-74
2024/01/14 05:09:05;;;;;;;;;;;;;;;0.52;100.00;101208.50;4948764;28;20708;-74
2024/01/14 05:11:30;;;;;;;;;;;;;;;0.53;100.00;101208.44;4952408;28;20304;-75
2024/01/14 05:13:56;;;;;;;;;;;;;;;0.57;100.00;101207.44;4948597;28;20016;-75
2024/01/14 05:16:21;;;;;;;;;;;;;;;0.57;100.00;101201.28;4949267;28;19923;-76
2024/01/14 05:18:46;;;;;;;;;;;;;;;0.54;100.00;101207.53;4955722;28;19929;-74
2024/01/14 05:21:16;;;;;;;;;;;;;;;0.54;100.00;101199.63;4956142;28;19933;-73
2024/01/14 05:23:41;;;;;;;;;;;;;;;0.61;100.00;101202.06;4962002;28;20379;-74
2024/01/14 05:26:07;;;;;;;;;;;;;;;0.54;100.00;101202.25;4957295;28;19927;-75
2024/01/14 05:28:32;;;;;;;;;;;;;;;0.50;100.00;101200.59;4963002;28;19922;-75
2024/01/14 05:30:58;;;;;;;;;;;;;;;0.47;100.00;101205.97;4960579;28;19926;-74
2024/01/14 05:33:23;;;;;;;;;;;;;;;0.44;100.00;101211.34;4954768;28;20212;-75
2024/01/14 05:35:48;;;;;;;;;;;;;;;0.45;100.00;101199.88;4958079;28;19960;-74
2024/01/14 05:38:13;;;;;;;;;;;;;;;0.46;100.00;101206.91;4952647;28;19953;-75
2024/01/14 05:40:38;;;;;;;;;;;;;;;0.41;100.00;101212.31;4964002;28;19923;-74
2024/01/14 05:43:04;;;;;;;;;;;;;;;0.47;100.00;101197.22;4951378;28;19918;-73
2024/01/14 05:45:29;;;;;;;;;;;;;;;0.41;100.00;101193.81;4948818;28;20027;-73
2024/01/14 05:47:54;;;;;;;;;;;;;;;0.34;100.00;101187.00;4956915;28;19926;-74
2024/01/14 05:50:19;;;;;;;;;;;;;;;0.39;100.00;101193.00;4958338;28;19928;-74
2024/01/14 05:52:45;;;;;;;;;;;;;;;0.32;100.00;101195.88;4960154;28;19922;-74
2024/01/14 05:55:10;;;;;;;;;;;;;;;0.35;100.00;101185.22;4953195;28;20814;-73
2024/01/14 05:57:35;;;;;;;;;;;;;;;0.35;100.00;101185.22;4951357;28;20005;-74
2024/01/14 06:00:00;;;;;;;;;;;;;;;0.33;100.00;101194.97;4956481;28;19914;-73
2024/01/14 06:02:25;;;;;;;;;;;;;;;0.28;100.00;101192.44;4955438;28;19957;-73
2024/01/14 06:04:51;;;;;;;;;;;;;;;0.29;100.00;101204.75;4966067;28;20025;-73
2024/01/14 06:07:16;;;;;;;;;;;;;;;0.33;100.00;101192.34;4953752;28;20008;-74
2024/01/14 06:09:41;;;;;;;;;;;;;;;0.31;100.00;101188.88;4948312;28;20597;-73
2024/01/14 06:12:06;;;;;;;;;;;;;;;0.28;100.00;101195.97;4955231;28;20452;-74
2024/01/14 06:14:32;;;;;;;;;;;;;;;0.20;100.00;101191.81;4953450;28;19917;-76
2024/01/14 06:16:57;;;;;;;;;;;;;;;0.22;100.00;101182.94;4955335;28;19926;-74
2024/01/14 06:19:22;;;;;;;;;;;;;;;0.28;100.00;101184.53;4951493;28;19965;-74
2024/01/14 06:21:48;;;;;;;;;;;;;;;0.23;100.00;101191.75;4955693;28;19928;-74
2024/01/14 06:24:13;;;;;;;;;;;;;;;0.23;100.00;101184.66;4955822;28;19961;-74
2024/01/14 06:26:38;;;;;;;;;;;;;;;0.23;100.00;101168.81;4955445;28;19961;-74
2024/01/14 06:29:03;;;;;;;;;;;;;;;0.31;100.00;101180.94;4951369;28;19925;-73
2024/01/14 06:31:29;;;;;;;;;;;;;;;0.37;100.00;101178.13;4952364;28;19922;-73
2024/01/14 06:33:54;;;;;;;;;;;;;;;0.34;100.00;101180.84;4965680;28;19922;-73
2024/01/14 06:36:19;;;;;;;;;;;;;;;0.23;100.00;101181.19;4955499;28;19931;-73
2024/01/14 06:38:44;;;;;;;;;;;;;;;0.26;100.00;101173.16;4951185;28;19922;-74
2024/01/14 06:41:15;;;;;;;;;;;;;;;0.24;100.00;101170.56;4947223;28;19929;-73
2024/01/14 06:43:41;;;;;;;;;;;;;;;0.18;100.00;101168.09;4961967;28;20012;-73
2024/01/14 06:46:06;;;;;;;;;;;;;;;0.20;100.00;101162.78;4961200;28;19997;-72
2024/01/14 06:48:32;;;;;;;;;;;;;;;0.23;100.00;101157.41;4963065;28;19926;-73
2024/01/14 06:50:57;;;;;;;;;;;;;;;0.14;100.00;101158.50;4952851;28;19926;-74
2024/01/14 06:53:22;;;;;;;;;;;;;;;0.08;100.00;101154.28;4941761;28;20141;-73
2024/01/14 06:55:47;;;;;;;;;;;;;;;0.03;100.00;101147.41;4953354;28;19926;-73
2024/01/14 06:58:12;;;;;;;;;;;;;;;-0.04;100.00;101147.59;4952866;28;19949;-75
2024/01/14 07:00:38;;;;;;;;;;;;;;;0.05;100.00;101137.69;4958452;28;19929;-73
2024/01/14 07:03:03;;;;;;;;;;;;;;;0.01;100.00;101125.47;4952642;28;19926;-73
2024/01/14 07:05:28;;;;;;;;;;;;;;;-0.01;100.00;101123.75;4950569;28;19922;-73
2024/01/14 07:07:53;;;;;;;;;;;;;;;0.06;100.00;101118.28;4948015;28;19929;-74
2024/01/14 07:10:18;;;;;;;;;;;;;;;0.05;100.00;101114.75;4952635;28;19930;-75
2024/01/14 07:12:44;;;;;;;;;;;;;;;0.11;100.00;101119.03;4956339;28;19949;-73
2024/01/14 07:15:09;;;;;;;;;;;;;;;0.14;100.00;101118.91;4953264;28;19930;-73
2024/01/14 07:17:34;;;;;;;;;;;;;;;0.10;100.00;101118.13;4961750;28;19926;-73
2024/01/14 07:20:01;;;;;;;;;;;;;;;0.10;100.00;101109.38;4951238;28;19922;-73
2024/01/14 07:22:26;;;;;;;;;;;;;;;0.10;100.00;101115.50;4951411;28;19926;-74
2024/01/14 07:24:51;;;;;;;;;;;;;;;0.12;100.00;101107.56;4951509;28;20336;-73
2024/01/14 07:27:16;;;;;;;;;;;;;;;0.14;100.00;101111.88;4949668;28;20455;-73
2024/01/14 07:29:41;;;;;;;;;;;;;;;0.21;100.00;101119.59;4955161;28;21028;-73
2024/01/14 07:32:07;;;;;;;;;;;;;;;0.21;100.00;101119.59;4950847;28;20440;-73
2024/01/14 07:34:32;;;;;;;;;;;;;;;0.14;100.00;101121.53;4966766;28;20398;-73
2024/01/14 07:36:57;;;;;;;;;;;;;;;0.12;100.00;101118.97;4955558;28;19984;-76
2024/01/14 07:39:24;;;;;;;;;;;;;;;0.20;100.00;101124.00;4953329;28;20214;-74
2024/01/14 07:41:50;;;;;;;;;;;;;;;0.21;100.00;101112.53;4944198;28;19945;-73
2024/01/14 07:44:15;;;;;;;;;;;;;;;0.19;100.00;101124.91;4953913;28;19922;-74
2024/01/14 07:46:40;;;;;;;;;;;;;;;0.21;100.00;101131.03;4952476;28;19997;-74
2024/01/14 07:49:05;;;;;;;;;;;;;;;0.21;100.00;101117.81;4953136;28;19945;-73
2024/01/14 07:51:30;;;;;;;;;;;;;;;0.21;100.00;101119.59;4952577;28;19927;-73
2024/01/14 07:53:56;;;;;;;;;;;;;;;0.14;100.00;101125.06;4947763;28;19925;-73
2024/01/14 07:56:21;;;;;;;;;;;;;;;0.13;100.00;101117.22;4947759;28;19922;-75
2024/01/14 07:58:46;;;;;;;;;;;;;;;0.16;100.00;101118.88;4971011;28;19922;-74
2024/01/14 08:01:11;;;;;;;;;;;;;;;0.17;100.00;101118.81;4947463;28;20388;-74
2024/01/14 08:03:37;;;;;;;;;;;;;;;0.22;100.00;101123.97;4953034;28;20304;-75
2024/01/14 08:06:02;;;;;;;;;;;;;;;0.21;100.00;101117.81;4950875;28;20653;-74
2024/01/14 08:08:27;;;;;;;;;;;;;;;0.18;100.00;101120.53;4949432;28;20452;-74
2024/01/14 08:10:53;;;;;;;;;;;;;;;0.20;100.00;101123.16;4936775;28;20131;-74
2024/01/14 08:13:18;;;;;;;;;;;;;;;0.20;100.00;101129.28;4951687;28;19933;-75
2024/01/14 08:15:43;;;;;;;;;;;;;;;0.17;100.00;101128.53;4930882;28;20392;-74
2024/01/14 08:18:09;;;;;;;;;;;;;;;0.21;100.00;101128.38;4965046;28;19929;-74
2024/01/14 08:20:34;;;;;;;;;;;;;;;0.20;100.00;101131.94;4962725;28;19922;-74
2024/01/14 08:22:59;;;;;;;;;;;;;;;0.17;100.00;101129.38;4949231;28;19929;-74
2024/01/14 08:25:24;;;;;;;;;;;;;;;0.15;100.00;101136.47;4961713;28;19949;-75
2024/01/14 08:27:51;;;;;;;;;;;;;;;0.18;100.00;101131.09;4948085;28;19976;-75
2024/01/14 08:30:16;;;;;;;;;;;;;;;0.05;100.00;101114.75;4947041;28;19933;-76
2024/01/14 08:32:41;;;;;;;;;;;;;;;0.18;100.00;101122.34;4951325;28;20262;-74
2024/01/14 08:35:06;;;;;;;;;;;;;;;0.11;100.00;101119.88;4958187;28;19930;-74
2024/01/14 08:37:32;;;;;;;;;;;;;;;0.16;100.00;101119.72;4961065;28;19926;-74
2024/01/14 08:39:57;;;;;;;;;;;;;;;0.15;100.00;101115.34;4943262;28;20354;-74
2024/01/14 08:42:22;;;;;;;;;;;;;;;0.14;100.00;101109.22;4947653;28;20474;-74
2024/01/14 08:44:47;;;;;;;;;;;;;;;0.13;100.00;101115.41;4949003;28;20233;-74
2024/01/14 08:47:13;;;;;;;;;;;;;;;0.19;100.00;101113.50;4945996;28;19965;-73
2024/01/14 08:49:39;;;;;;;;;;;;;;;0.19;100.00;101113.50;4947340;28;20028;-74
2024/01/14 08:52:07;;;;;;;;;;;;;;;0.22;100.00;101110.78;4952307;28;20336;-74
2024/01/14 08:54:33;;;;;;;;;;;;;;;0.18;100.00;101098.56;4952631;28;19923;-76
2024/01/14 08:56:58;;;;;;;;;;;;;;;0.23;100.00;101104.59;4951956;28;19957;-74
2024/01/14 08:59:23;;;;;;;;;;;;;;;0.31;100.00;101112.28;4965805;28;20017;-73
2024/01/14 09:01:48;;;;;;;;;;;;;;;0.31;100.00;101107.00;4957963;28;19923;-75
2024/01/14 09:04:13;;;;;;;;;;;;;;;0.21;100.00;101104.63;4957487;28;19957;-74
2024/01/14 09:06:39;;;;;;;;;;;;;;;0.12;100.00;101105.75;4953942;28;20017;-75
2024/01/14 09:09:04;;;;;;;;;;;;;;;0.06;100.00;101107.72;4957103;28;19926;-74
2024/01/14 09:11:29;;;;;;;;;;;;;;;-0.02;100.00;101087.69;4959120;28;19933;-77
2024/01/14 09:13:54;;;;;;;;;;;;;;;-0.14;100.00;101080.16;4950429;28;19949;-76
2024/01/14 09:16:20;;;;;;;;;;;;;;;-0.01;100.00;101075.38;4952009;28;20366;-73
2024/01/14 09:18:45;;;;;;;;;;;;;;;-0.03;100.00;101079.84;4955538;28;20410;-75
2024/01/14 09:21:10;;;;;;;;;;;;;;;-0.03;100.00;101075.41;4954785;28;19922;-74
2024/01/14 09:23:35;;;;;;;;;;;;;;;0.02;100.00;101071.75;4954157;28;20024;-74
2024/01/14 09:26:01;;;;;;;;;;;;;;;-0.04;100.00;101062.25;4953306;28;19997;-73
2024/01/14 09:28:26;;;;;;;;;;;;;;;0.00;100.00;101063.91;4954460;28;20452;-74
2024/01/14 09:30:51;;;;;;;;;;;;;;;0.05;100.00;101051.41;4950820;28;20343;-74
2024/01/14 09:33:17;;;;;;;;;;;;;;;0.09;100.00;101057.47;4948034;28;20030;-75
2024/01/14 09:35:42;;;;;;;;;;;;;;;0.14;100.00;101050.25;4952025;28;20722;-78
2024/01/14 09:38:08;;;;;;;;;;;;;;;0.18;100.00;101051.03;4947048;28;20339;-74
2024/01/14 09:40:33;;;;;;;;;;;;;;;0.21;100.00;101051.78;4954743;28;19926;-75
2024/01/14 09:42:58;;;;;;;;;;;;;;;0.20;100.00;101043.94;4969154;28;19922;-74
2024/01/14 09:45:23;;;;;;;;;;;;;;;0.25;100.00;101042.88;4966510;28;19922;-76
2024/01/14 09:47:49;;;;;;;;;;;;;;;0.27;100.00;101034.88;4951458;28;19930;-75
2024/01/14 09:50:14;;;;;;;;;;;;;;;0.25;100.00;101036.75;4948034;28;19961;-74
2024/01/14 09:52:39;;;;;;;;;;;;;;;0.28;100.00;101034.84;4951788;28;19922;-74
2024/01/14 09:55:05;;;;;;;;;;;;;;;0.37;100.00;101036.34;4946948;28;19930;-75
2024/01/14 09:57:30;;;;;;;;;;;;;;;0.36;100.00;101037.25;4948882;28;20028;-73
2024/01/14 09:59:55;;;;;;;;;;;;;;;0.40;100.00;101035.34;4939844;28;20044;-73
2024/01/14 10:02:21;;;;;;;;;;;;;;;0.42;100.00;101038.81;4955692;28;19963;-75
2024/01/14 10:04:46;;;;;;;;;;;;;;;0.39;100.00;101028.38;4951388;28;20013;-75
2024/01/14 10:07:11;;;;;;;;;;;;;;;0.43;100.00;101022.94;4951473;28;20052;-74
2024/01/14 10:09:38;;;;;;;;;;;;;;;0.46;100.00;101027.25;4951518;28;19962;-76
2024/01/14 10:12:04;;;;;;;;;;;;;;;0.47;100.00;101022.84;4953951;28;19934;-74
2024/01/14 10:14:29;;;;;;;;;;;;;;;0.48;100.00;101024.56;4952430;28;19922;-74
2024/01/14 10:16:54;;;;;;;;;;;;;;;0.52;100.00;101024.41;4965763;28;19926;-76
2024/01/14 10:19:20;;;;;;;;;;;;;;;0.50;100.00;101018.31;4952652;28;20024;-74
2024/01/14 10:21:45;;;;;;;;;;;;;;;0.53;100.00;101020.00;4954140;28;20035;-75
2024/01/14 10:24:10;;;;;;;;;;;;;;;0.52;100.00;101015.63;4952585;28;19980;-73
2024/01/14 10:26:35;;;;;;;;;;;;;;;0.54;100.00;101014.66;4955725;28;20069;-74
2024/01/14 10:29:02;;;;;;;;;;;;;;;0.63;100.00;101009.97;4954700;28;19960;-75
2024/01/14 10:31:28;;;;;;;;;;;;;;;0.50;100.00;101005.09;4952775;28;20352;-73
2024/01/14 10:33:54;;;;;;;;;;;;;;;0.53;100.00;101009.44;4965245;28;19961;-76
2024/01/14 10:36:19;;;;;;;;;;;;;;;0.55;100.00;101011.09;4963819;28;19921;-73
2024/01/14 10:38:44;;;;;;;;;;;;;;;0.61;100.00;101010.00;4956070;28;19922;-74
2024/01/14 10:41:10;;;;;;;;;;;;;;;0.59;100.00;101009.19;4951845;28;20510;-74
2024/01/14 10:43:36;;;;;;;;;;;;;;;0.65;100.00;101005.50;4949934;28;20719;-73
2024/01/14 10:46:02;;;;;;;;;;;;;;;0.58;100.00;101002.19;4948647;28;20409;-73
2024/01/14 10:48:27;;;;;;;;;;;;;;;0.65;100.00;100992.28;4932358;28;19929;-72
2024/01/14 10:50:54;;;;;;;;;;;;;;;0.66;100.00;100981.66;4949471;28;19922;-73
2024/01/14 10:53:23;;;;;;;;;;;;;;;0.73;100.00;100979.66;4966065;28;20471;-72
2024/01/14 10:55:51;;;;;;;;;;;;;;;0.70;100.00;100995.63;4969782;28;20020;-74
2024/01/14 10:58:26;;;;;;;;;;;;;;;0.74;100.00;100987.56;4946170;28;19929;-73
2024/01/14 11:00:51;;;;;;;;;;;;;;;0.82;100.00;100987.28;4954793;28;19980;-75
2024/01/14 11:03:17;;;;;;;;;;;;;;;0.78;100.00;100985.66;4951124;28;19926;-74
2024/01/14 11:05:42;;;;;;;;;;;;;;;0.83;100.00;100985.50;4968149;28;20677;-73
2024/01/14 11:08:08;;;;;;;;;;;;;;;0.84;100.00;100971.34;4948728;28;20073;-73
2024/01/14 11:10:33;;;;;;;;;;;;;;;0.85;100.00;100967.78;4955946;28;19929;-74
2024/01/14 11:13:04;;;;;;;;;;;;;;;0.85;100.00;100978.38;4971082;28;20333;-74
2024/01/14 11:15:35;;;;;;;;;;;;;;;0.84;100.00;100966.94;4956671;28;19933;-74
2024/01/14 11:18:02;;;;;;;;;;;;;;;0.87;100.00;100958.91;4957420;28;20321;-74
2024/01/14 11:20:31;;;;;;;;;;;;;;;0.84;100.00;100952.84;4956856;28;20292;-74
2024/01/14 11:22:56;;;;;;;;;;;;;;;0.89;100.00;100958.84;4950410;28;19922;-73
2024/01/14 11:25:22;;;;;;;;;;;;;;;0.91;100.00;100950.88;4949525;28;19973;-72
2024/01/14 11:27:47;;;;;;;;;;;;;;;0.92;100.00;100947.31;4957647;28;20038;-74
2024/01/14 11:30:32;;;;;;;;;;;;;;;0.91;100.00;100942.94;4953972;28;20012;-75
2024/01/14 11:33:16;;;;;;;;;;;;;;;0.92;100.00;100934.09;4950867;28;19926;-74
2024/01/14 11:35:42;;;;;;;;;;;;;;;0.92;100.00;100931.44;4951158;28;19926;-74
2024/01/14 11:38:08;;;;;;;;;;;;;;;0.87;100.00;100919.25;4950172;28;20333;-74
2024/01/14 11:40:33;;;;;;;;;;;;;;;0.85;100.00;100917.56;4967747;28;20348;-75
2024/01/14 11:43:02;;;;;;;;;;;;;;;0.90;100.00;100920.91;4951823;28;20198;-75
2024/01/14 11:45:27;;;;;;;;;;;;;;;0.89;100.00;100913.91;4948147;28;19926;-74
2024/01/14 11:47:53;;;;;;;;;;;;;;;0.86;100.00;100920.19;4953212;28;19962;-75
2024/01/14 11:50:18;;;;;;;;;;;;;;;0.87;100.00;100911.31;4954888;28;20411;-76
2024/01/14 11:52:50;;;;;;;;;;;;;;;0.84;100.00;100906.16;4948106;28;19968;-75
2024/01/14 11:55:19;;;;;;;;;;;;;;;0.82;100.00;100905.34;4984129;22;19952;-75
2024/01/14 11:57:44;;;;;;;;;;;;;;;0.84;100.00;100902.63;4986389;28;20404;-73
2024/01/14 12:00:10;;;;;;;;;;;;;;;0.88;100.00;100899.84;4986768;28;19917;-73
2024/01/14 12:02:35;;;;;;;;;;;;;;;0.86;100.00;100891.09;4987647;28;20138;-73
2024/01/14 12:05:16;;;;;;;;;;;;;;;0.80;100.00;100891.31;4986948;28;19918;-74
2024/01/14 12:07:42;;;;;;;;;;;;;;;0.86;100.00;100895.50;4990708;28;19931;-74
2024/01/14 12:10:07;;;;;;;;;;;;;;;0.86;100.00;100893.75;4991709;28;19921;-73
2024/01/14 12:12:35;;;;;;;;;;;;;;;0.80;100.00;100890.44;4984225;28;19917;-73
2024/01/14 12:15:01;;;;;;;;;;;;;;;0.78;100.00;100889.66;4987979;28;19929;-73
2024/01/14 12:17:26;;;;;;;;;;;;;;;0.77;100.00;100893.22;4986946;28;19960;-73
2024/01/14 12:19:56;;;;;;;;;;;;;;;0.78;100.00;100892.31;4987492;28;19926;-74
2024/01/14 12:22:21;;;;;;;;;;;;;;;0.73;100.00;100877.47;4986059;28;20045;-74
2024/01/14 12:24:46;;;;;;;;;;;;;;;0.72;100.00;100872.22;4987473;28;20376;-74
2024/01/14 12:27:11;;;;;;;;;;;;;;;0.64;100.00;100880.44;4987739;28;20632;-74